OIFK  Kashan Airport

Add Bookmark

Iran

Status
Operational
Latitude Longitude
33° 53' 43" N 51° 34' 37" E
33.895302 51.577000
Local (DST + 5) UTC (GMT + 4)
Nov 1, 2014 01:31 Oct 31, 2014 22:01
Sunrise-Sunset Local UTC
Begin Civil Twilight 05:56 02:26
Sunrise 06:21 02:51
Sunset 05:12 13:42
End Civil Twilight 05:38 14:08

Current Weather

METAR Observed VFR
OIFK 311900Z 00000KT 9999 RA SCT035 OVC090 12/10 Q1019 Fri, Oct 31, 2014 @ 19:00 UTC
(3 Hours, 1 Minute ago)
Visual Flight Rules
Wind Visibility Clouds Conditions
Calm 10 km or more
  • Scattered at 3,500' AGL
  • Overcast at 9,000' AGL
  • Rain
Temperatures Readings Precipitation
Current Temp 12°C (54°F)
Dewpoint 10°C (50°F)
Humidity 88%
Altimeter 30.09"Hg
Sea Level Pressure 1019mb
Field Elevation 3221.78'
None Recorded

Additional weather within a 185.2km radius of OIFK

Map ICAO Location
OIFM 129.8km S (168°)
OIIE 173.3km N (347°)

24 Hour Weather History

Loading
-

24 Hour Weather Graphs

Loading
-

CheckWX.com is intended as a tool to help pilots better visualize weather data. It is not intended as a substitute for an official weather briefing obtained from a Flight Service Station. CheckWX.com does not meet the FAA requirements for an official pre-flight weather briefing. Therefore, it's important that pilots still call and obtain an official FSS pre-flight weather briefing.